Map

Track Data

SID SEASON NUMBER BASIN SUBBASIN NAME ISO_TIME NATURE LAT LON WMO_WIND WMO_PRES WMO_AGENCY TRACK_TYPE DIST2LAND LANDFALL IFLAG USA_AGENCY USA_ATCF_ID USA_LAT USA_LON USA_RECORD USA_STATUS USA_WIND USA_PRES USA_SSHS USA_R34_NE USA_R34_SE USA_R34_SW USA_R34_NW USA_R50_NE USA_R50_SE USA_R50_SW USA_R50_NW USA_R64_NE USA_R64_SE USA_R64_SW USA_R64_NW USA_POCI USA_ROCI USA_RMW USA_EYE TOKYO_LAT TOKYO_LON TOKYO_GRADE TOKYO_WIND TOKYO_PRES TOKYO_R50_DIR TOKYO_R50_LONG TOKYO_R50_SHORT TOKYO_R30_DIR TOKYO_R30_LONG TOKYO_R30_SHORT TOKYO_LAND CMA_LAT CMA_LON CMA_CAT CMA_WIND CMA_PRES HKO_LAT HKO_LON HKO_CAT HKO_WIND HKO_PRES NEWDELHI_LAT NEWDELHI_LON NEWDELHI_GRADE NEWDELHI_WIND NEWDELHI_PRES NEWDELHI_CI NEWDELHI_DP NEWDELHI_POCI REUNION_LAT REUNION_LON REUNION_TYPE REUNION_WIND REUNION_PRES REUNION_TNUM REUNION_CI REUNION_RMW REUNION_R34_NE REUNION_R34_SE REUNION_R34_SW REUNION_R34_NW REUNION_R50_NE REUNION_R50_SE REUNION_R50_SW REUNION_R50_NW REUNION_R64_NE REUNION_R64_SE REUNION_R64_SW REUNION_R64_NW BOM_LAT BOM_LON BOM_TYPE BOM_WIND BOM_PRES BOM_TNUM BOM_CI BOM_RMW BOM_R34_NE BOM_R34_SE BOM_R34_SW BOM_R34_NW BOM_R50_NE BOM_R50_SE BOM_R50_SW BOM_R50_NW BOM_R64_NE BOM_R64_SE BOM_R64_SW BOM_R64_NW BOM_ROCI BOM_POCI BOM_EYE BOM_POS_METHOD BOM_PRES_METHOD NADI_LAT NADI_LON NADI_CAT NADI_WIND NADI_PRES WELLINGTON_LAT WELLINGTON_LON WELLINGTON_WIND WELLINGTON_PRES DS824_LAT DS824_LON DS824_STAGE DS824_WIND DS824_PRES TD9636_LAT TD9636_LON TD9636_STAGE TD9636_WIND TD9636_PRES TD9635_LAT TD9635_LON TD9635_WIND TD9635_PRES TD9635_ROCI NEUMANN_LAT NEUMANN_LON NEUMANN_CLASS NEUMANN_WIND NEUMANN_PRES MLC_LAT MLC_LON MLC_CLASS MLC_WIND MLC_PRES USA_GUST BOM_GUST BOM_GUST_PER REUNION_GUST REUNION_GUST_PER USA_SEAHGT USA_SEARAD_NE USA_SEARAD_SE USA_SEARAD_SW USA_SEARAD_NW STORM_SPEED STORM_DIR
1989089S11158 1989 28 SP EA AIVU 1989-03-29 12:00:00 TS -11.4000 158.200 main 250 250 O_________O_O_ jtwc_sh SH231989 -11.4000 158.200 25 -1 -11.4000 158.200 1 25 -11.4000 158.200 TC 25 4 285
1989089S11158 1989 28 SP EA AIVU 1989-03-29 15:00:00 TS -11.3469 158.001 main 258 258 P_________P_P_ SH231989 -11.3500 157.997 25 -1 -11.3407 158.009 1 25 -11.3500 157.997 TC 25 4 285
1989089S11158 1989 28 SP EA AIVU 1989-03-29 18:00:00 TS -11.2950 157.805 main 275 275 O_________P_O_ jtwc_sh SH231989 -11.3000 157.800 25 -1 -11.2851 157.815 1 25 -11.3000 157.800 TC 25 4 285
1989089S11158 1989 28 SP EA AIVU 1989-03-29 21:00:00 TS -11.2456 157.609 main 287 287 P_________P_P_ SH231989 -11.2500 157.608 25 -1 -11.2369 157.613 1 25 -11.2500 157.608 TC 25 4 283
1989089S11158 1989 28 SP EA AIVU 1989-03-30 00:00:00 TS -11.2000 157.400 main 294 294 O_________O_O_ jtwc_sh SH231989 -11.2000 157.400 25 -1 -11.2000 157.400 1 25 -11.2000 157.400 TC 25 4 282
1989089S11158 1989 28 SP EA AIVU 1989-03-30 03:00:00 TS -11.1536 157.163 main 298 290 P_________P_P_ SH231989 -11.1425 157.157 25 -1 -11.1759 157.173 1 25 -11.1425 157.157 TC 25 5 280
1989089S11158 1989 28 SP EA AIVU 1989-03-30 06:00:00 TS -11.1191 156.910 main 296 296 O_________P_O_ jtwc_sh SH231989 -11.1000 156.900 25 -1 -11.1574 156.930 1 25 -11.1000 156.900 TC 25 5 275
1989089S11158 1989 28 SP EA AIVU 1989-03-30 09:00:00 TS -11.1117 156.663 main 304 304 P_________P_P_ SH231989 -11.1000 156.658 25 -1 -11.1352 156.673 1 25 -11.1000 156.658 TC 25 5 272
1989089S11158 1989 28 SP EA AIVU 1989-03-30 12:00:00 TS -11.1000 156.400 main 319 319 O_________O_O_ jtwc_sh SH231989 -11.1000 156.400 25 -1 -11.1000 156.400 1 25 -11.1000 156.400 TC 25 5 275
1989089S11158 1989 28 SP EA AIVU 1989-03-30 15:00:00 TS -11.0645 156.113 main 336 329 P_________P_P_ SH231989 -11.0650 156.108 25 -1 -11.0637 156.123 1 25 -11.0650 156.108 TC 25 6 279
1989089S11158 1989 28 SP EA AIVU 1989-03-30 18:00:00 TS -11.0033 155.810 main 339 339 O_________P_O_ jtwc_sh SH231989 -11.0000 155.800 25 -1 -11.0099 155.830 1 25 -11.0000 155.800 TC 25 6 284
1989089S11158 1989 28 SP EA AIVU 1989-03-30 21:00:00 TS -10.9237 155.518 main 345 345 P_________P_P_ SH231989 -10.9224 155.515 25 -1 -10.9261 155.523 1 25 -10.9224 155.515 TC 25 6 289
1989089S11158 1989 28 SP EA AIVU 1989-03-31 00:00:00 TS -10.8000 155.200 main 355 354 O_________O_O_ jtwc_sh SH231989 -10.8000 155.200 25 -1 -10.8000 155.200 1 25 -10.8000 155.200 TC 25 8 295
1989089S11158 1989 28 SP EA AIVU 1989-03-31 03:00:00 TS -10.6035 154.817 main 368 368 P_________P_P_ SH231989 -10.6226 154.800 25 -1 -10.5654 154.852 1 25 -10.6226 154.800 TC 25 9 300
1989089S11158 1989 28 SP EA AIVU 1989-03-31 06:00:00 TS -10.3659 154.431 main 387 373 O_________P_O_ jtwc_sh SH231989 -10.4000 154.400 25 -1 -10.2976 154.492 1 25 -10.4000 154.400 TC 25 9 306
1989089S11158 1989 28 SP EA AIVU 1989-03-31 09:00:00 TS -10.0936 154.102 main 373 342 P_________P_P_ SH231989 -10.1124 154.085 25 -1 -10.0560 154.136 1 25 -10.1124 154.085 TC 25 8 306
1989089S11158 1989 28 SP EA AIVU 1989-03-31 12:00:00 TS -9.89231 153.777 25 1000 bom main 342 310 O_____O___O_O_ jtwc_sh SH231989 -9.90000 153.800 25 -1 -9.80000 153.500 20 25 1000 2.00000 -9.90000 153.800 1 25 -9.90000 153.800 TC 25 45 45 7 290
1989089S11158 1989 28 SP EA AIVU 1989-03-31 15:00:00 TS -9.86516 153.455 main 310 277 P_____P___P_P_ SH231989 -9.88999 153.493 25 -1 -9.77256 153.230 20 27 999 -9.86179 153.491 1 27 -9.88999 153.493 TC 25 6 266
1989089S11158 1989 28 SP EA AIVU 1989-03-31 18:00:00 TS -9.93864 153.161 30 998 bom main 277 243 O_____O___P_O_ jtwc_sh SH231989 -10.0000 153.200 25 -1 -9.80000 153.000 20 30 998 2.50000 -9.91991 153.205 1 30 -10.0000 153.200 TC 25 45 45 6 251
1989089S11158 1989 28 SP EA AIVU 1989-03-31 21:00:00 TS -10.0526 152.908 main 241 218 P_____P___P_P_ SH231989 -10.1050 152.927 30 -1 -9.93247 152.835 20 32 996 -10.0681 152.941 1 32 -10.1050 152.927 TC 30 6 231
1989089S11158 1989 28 SP EA AIVU 1989-04-01 00:00:00 TS -10.2882 152.724 35 995 bom main 218 207 O_____O_O_O_O_ jtwc_sh SH231989 -10.3000 152.700 35 0 -10.2000 152.700 30 35 995 3.00000 1010 -10.5000 153.100 30 997 -10.3000 152.700 2 35 -10.3000 152.700 TC 35 49 49 7 210
1989089S11158 1989 28 SP EA AIVU 1989-04-01 03:00:00 TS -10.6342 152.563 main 207 188 P_____P_P_P_P_ SH231989 -10.6124 152.550 37 0 -10.6050 152.557 30 40 992 -10.9051 152.773 35 993 -10.5714 152.490 2 37 -10.6124 152.550 TC 37 8 203
1989089S11158 1989 28 SP EA AIVU 1989-04-01 06:00:00 TS -11.0521 152.395 45 990 bom main 194 186 O_____O_O_P_O_ jtwc_sh SH231989 -11.0000 152.400 40 0 -11.1000 152.400 30 45 990 3.00000 -11.3000 152.500 40 990 -10.9223 152.300 2 40 -11.0000 152.400 TC 40 64 64 9 204
1989089S11158 1989 28 SP EA AIVU 1989-04-01 09:00:00 TS -11.4679 152.192 main 192 189 P_____P_P_P_P_ SH231989 -11.3700 152.165 42 0 -11.5775 152.215 30 45 989 -11.6849 152.307 42 988 -11.3371 152.109 2 42 -11.3700 152.165 TC 42 10 206
1989089S11158 1989 28 SP EA AIVU 1989-04-01 12:00:00 TS -11.9200 151.960 45 989 bom main 203 195 O_____O_O_O_O_ jtwc_sh SH231989 -11.8000 151.900 45 0 -12.1000 152.000 30 45 989 3.00000 215 3 5 -12.1000 152.100 45 987 -11.8000 151.900 2 45 -11.8000 151.900 TC 45 64 64 11 206
1989089S11158 1989 28 SP EA AIVU 1989-04-01 15:00:00 TS -12.4459 151.702 main 229 229 P_____P_P_P_P_ SH231989 -12.3350 151.657 47 0 -12.6999 151.772 30 47 987 201 -12.5700 151.772 47 986 -12.2896 151.651 2 48 -12.3350 151.657 TC 47 12 206
1989089S11158 1989 28 SP EA AIVU 1989-04-01 18:00:00 TS -13.0039 151.416 50 986 bom main 279 279 O_____O_O_P_O_ jtwc_sh SH231989 -12.9000 151.400 50 0 -13.3000 151.500 30 50 986 3.50000 188 3 5 -13.1000 151.400 50 985 -12.8193 151.381 2 52 -12.9000 151.400 TC 50 69 69 12 208
1989089S11158 1989 28 SP EA AIVU 1989-04-01 21:00:00 TS -13.5403 151.105 main 322 322 P_____P_P_P_P_ SH231989 -13.4075 151.107 55 0 -13.7999 151.180 30 52 985 174 -13.7225 151.035 50 985 -13.3643 151.095 2 56 -13.4075 151.107 TC 55 12 210
1989089S11158 1989 28 SP EA AIVU 1989-04-02 00:00:00 TS -14.0600 150.780 55 984 bom main 383 382 O_____O_O_O_O_ jtwc_sh SH231989 -13.9000 150.800 60 0 -14.3000 150.800 30 55 984 4.00000 161 1010 3 5 -14.3000 150.700 50 985 -13.9000 150.800 2 60 -13.9000 150.800 TC 60 75 75 12 211
1989089S11158 1989 28 SP EA AIVU 1989-04-02 03:00:00 TS -14.5854 150.453 main 436 436 P_____P_P_P_P_ SH231989 -14.4225 150.500 62 0 -14.9677 150.328 30 57 982 174 -14.6874 150.435 52 982 -14.4269 150.502 2 62 -14.4225 150.500 TC 62 12 212
1989089S11158 1989 28 SP EA AIVU 1989-04-02 06:00:00 TS -15.0400 150.140 60 980 bom main 481 463 O_____O_O_O_O_ jtwc_sh SH231989 -14.9000 150.200 65 1 -15.5000 149.900 30 60 980 4.00000 188 3 5 -15.0000 150.200 55 980 -14.9000 150.200 3 65 -14.9000 150.200 TC 65 84 84 10 217
1989089S11158 1989 28 SP EA AIVU 1989-04-02 09:00:00 TS -15.3738 149.839 main 453 424 P_____P_P_P_P_ SH231989 -15.2950 149.870 70 1 -15.6174 149.647 30 65 977 196 -15.3725 149.928 57 977 -15.2892 149.880 3 70 -15.2950 149.870 TC 70 8 222
1989089S11158 1989 28 SP EA AIVU 1989-04-02 12:00:00 TS -15.6200 149.600 70 975 bom main 424 404 O_____O_O_O_O_ jtwc_sh SH231989 -15.6000 149.600 75 1 -15.6000 149.500 40 70 975 4.50000 205 2 5 -15.7000 149.700 60 975 -15.6000 149.600 4 75 -15.6000 149.600 TC 75 99 99 6 219
1989089S11158 1989 28 SP EA AIVU 1989-04-02 15:00:00 TS -15.8214 149.462 main 404 384 P_____P_P_P_P_ SH231989 -15.8224 149.470 80 1 -15.7050 149.377 40 80 968 237 -15.9225 149.570 65 970 -15.8347 149.421 4 83 -15.8224 149.470 TC 80 4 209
1989089S11158 1989 28 SP EA AIVU 1989-04-02 18:00:00 TS -16.0027 149.383 90 962 bom main 384 366 O_____O_O_P_O_ jtwc_sh SH231989 -16.0000 149.400 85 2 -15.9000 149.300 40 90 962 5.50000 269 3 4 5 -16.1000 149.500 70 965 -16.0134 149.317 4 92 -16.0000 149.400 TC 85 124 124 4 200
1989089S11158 1989 28 SP EA AIVU 1989-04-02 21:00:00 TS -16.2121 149.308 main 366 348 P_____P_P_P_P_ SH231989 -16.1700 149.292 97 3 -16.2425 149.235 40 100 956 255 -16.2925 149.465 75 960 -16.1854 149.255 4 101 -16.1700 149.292 TC 97 5 197
1989089S11158 1989 28 SP EA AIVU 1989-04-03 00:00:00 TS -16.4600 149.240 110 950 bom main 344 338 O_____O_O_O_O_ jtwc_sh SH231989 -16.4000 149.200 110 3 -16.6000 149.200 40 110 950 6.50000 242 1010 4 4 5 -16.5000 149.400 80 955 -16.4000 149.200 4 110 -16.4000 149.200 TC 110 154 154 6 193
1989089S11158 1989 28 SP EA AIVU 1989-04-03 03:00:00 TS -16.7592 149.173 main 336 313 P_____P_P_P_P_ SH231989 -16.7775 149.157 112 3 -16.7850 149.207 40 110 942 242 -16.7276 149.215 85 947 -16.7286 149.128 4 112 -16.7775 149.157 TC 112 7 192
1989089S11158 1989 28 SP EA AIVU 1989-04-03 06:00:00 TS -17.1010 149.090 110 935 bom main 313 271 O_____O_O_P_O_ jtwc_sh SH231989 -17.2000 149.100 115 4 -17.0000 149.200 40 110 935 6.50000 242 4 4 7 -17.0000 149.000 90 940 -17.1048 149.052 4 115 -17.2000 149.100 TC 115 154 154 7 194
1989089S11158 1989 28 SP EA AIVU 1989-04-03 09:00:00 TS -17.4792 148.979 main 271 231 P_____P_P_P_P_ SH231989 -17.5650 148.973 117 4 -17.4349 149.145 40 107 938 228 -17.3274 148.857 90 940 -17.5035 148.950 4 117 -17.5650 148.973 TC 117 8 199
1989089S11158 1989 28 SP EA AIVU 1989-04-03 12:00:00 TS -17.8600 148.820 105 942 bom main 223 184 O_____O_O_O_O_ jtwc_sh SH231989 -17.9000 148.800 120 4 -17.9000 149.000 40 105 942 6.00000 215 4 4 6 -17.7000 148.700 90 940 -17.9000 148.800 4 120 -17.9000 148.800 TC 120 145 145 8 206
1989089S11158 1989 28 SP EA AIVU 1989-04-03 15:00:00 TS -18.1848 148.616 main 184 145 P_____P_P_P_P_ SH231989 -18.1924 148.630 115 4 -18.1850 148.745 40 100 945 215 -18.0850 148.472 85 947 -18.2692 148.604 4 115 -18.1924 148.630 TC 115 8 214
1989089S11158 1989 28 SP EA AIVU 1989-04-03 18:00:00 TS -18.5259 148.351 95 948 bom main 145 92 O_____O_O_P_O_ jtwc_sh SH231989 -18.5000 148.400 110 3 -18.5000 148.400 40 95 948 5.50000 215 6 6 -18.5000 148.200 80 955 -18.6296 148.355 4 110 -18.5000 148.400 TC 110 135 135 10 216
1989089S11158 1989 28 SP EA AIVU 1989-04-03 21:00:00 TS -18.9527 148.032 main 76 23 P_____P_P_P_P_ SH231989 -18.8850 148.073 105 3 -19.0647 148.053 40 90 951 215 -18.9534 147.907 75 960 -18.9753 148.053 4 105 -18.8850 148.073 TC 105 11 217
1989089S11158 1989 28 SP EA AIVU 1989-04-04 00:00:00 TS -19.3800 147.660 85 955 bom main 23 0 O_____O_O_O_O_ jtwc_sh SH231989 -19.3000 147.700 100 3 -19.6000 147.600 40 85 955 5.00000 215 1008 5 6 3 -19.4000 147.600 70 965 -19.3000 147.700 4 100 -19.3000 147.700 TC 100 119 119 11 222
1989089S11158 1989 28 SP EA AIVU 1989-04-04 03:00:00 TS -19.7407 147.269 main 0 0 P_____P_O_P_P_ SH231989 -19.7372 147.380 77 1 -19.8527 146.980 40 67 971 161 -19.8000 147.300 55 980 -19.5764 147.304 4 86 -19.7372 147.380 TC 85 11 230
1989089S11158 1989 28 SP EA AIVU 1989-04-04 06:00:00 TS -20.0548 146.791 50 987 bom main 0 0 O_____O_O_P_O_ jtwc_sh SH231989 -20.1000 147.000 55 0 -20.0000 146.300 30 50 987 107 2 7 -20.3000 146.800 40 990 -19.8351 146.859 4 72 -20.1000 147.000 TC 70 69 69 11 241
1989089S11158 1989 28 SP EA AIVU 1989-04-04 09:00:00 TS -20.2555 146.264 main 0 0 P_____P_P_P_P_ SH231989 -20.2727 146.465 50 0 -20.1924 145.677 30 42 990 134 -20.6216 146.398 35 993 -20.1013 146.385 4 58 -20.2727 146.465 TC 60 11 250
1989089S11158 1989 28 SP EA AIVU 1989-04-04 12:00:00 TS -20.4235 145.724 35 993 bom main 0 0 O_____O_O_O_O_ jtwc_sh SH231989 -20.4000 145.900 45 0 -20.4000 145.100 30 35 993 161 2 7 -20.8000 146.100 30 997 -20.4000 145.900 2 45 -20.4000 145.900 TC 50 49 49 10 249
1989089S11158 1989 28 SP EA AIVU 1989-04-04 15:00:00 TS -20.6391 145.224 main 0 0 P_____P___P_P_ SH231989 -20.5897 145.442 40 0 -20.6272 144.592 30 32 995 161 -20.7500 145.420 2 40 -20.5897 145.442 TC 45 11 240
1989089S11158 1989 28 SP EA AIVU 1989-04-04 18:00:00 TS -20.9521 144.731 30 997 bom main 0 0 O_____O___P_O_ jtwc_sh SH231989 -20.9000 145.000 35 0 -20.9000 144.100 20 30 997 161 2 7 -21.1432 144.945 2 35 -20.9000 145.000 TC 40 45 45 13 232
1989089S11158 1989 28 SP EA AIVU 1989-04-04 21:00:00 TS -21.4085 144.169 main 0 0 P_____P___P_P_ SH231989 -21.3954 144.516 30 -1 -21.2578 143.505 20 27 998 134 -21.5649 144.473 2 30 -21.4874 144.508 TC 37 14 230
1989089S11158 1989 28 SP EA AIVU 1989-04-05 00:00:00 TS -21.8400 143.600 25 1000 bom main 0 0 O_____O___O_O_ jtwc_sh SH231989 -22.0000 144.000 25 -1 -21.6000 143.000 20 25 1000 107 1008 2 7 -22.0000 144.000 1 25 -22.0000 144.000 TC 35 45 45 11 240
1989089S11158 1989 28 SP EA AIVU 1989-04-05 03:00:00 TS -21.9672 143.123 main 0 0 ______P_____P_ SH231989 -1 -21.8522 142.747 20 22 1000 80 1 -22.0823 143.499 TC 30 8 258
1989089S11158 1989 28 SP EA AIVU 1989-04-05 06:00:00 TS -22.0000 142.800 20 1001 bom main 0 0 ______O_____O_ -1 -22.0000 142.600 50 20 1001 53 2 7 1 -22.0000 143.000 TC 25 45 45 6 267
1989089S11158 1989 28 SP EA AIVU 1989-04-05 09:00:00 TS -22.0028 142.459 main 0 0 ______P_____P_ -1 -22.0327 142.418 50 17 1002 53 1 -21.9728 142.500 TC 22 6 270
1989089S11158 1989 28 SP EA AIVU 1989-04-05 12:00:00 TS -22.0000 142.100 15 1003 bom main 0 ______O_____O_ -1 -22.0000 142.200 50 15 1003 53 2 7 -22.0000 142.000 TC 20 45 45 7 270

Digital Typhoon Data and Search

About IBTrACS Database

This database is a web-friendly format of International Best Track Archive for Climate Stewardship (IBTrACS), a global best track data archive curated by NOAA dating back to 1842.

Updated: 2021-10-19